Time;durP1;ratioP1;P1;durP2;ratioP2;P2;SDS_P1;SDS_P2;PMS_P1;PMS_P2;Temp;Humidity;BMP_temperature;BMP_pressure;BME280_temperature;BME280_humidity;BME280_pressure;Samples;Min_cycle;Max_cycle;Signal;HPM_P1;HPM_P2
2021/01/16 06:17:07;;;;;;;1999.90;999.90;;;-1.60;99.90;;;;;;5131023;23;20247;-76
2021/01/16 06:19:41;;;;;;;1999.90;999.90;;;-1.60;99.90;;;;;;4911143;29;20210;-77
2021/01/16 06:22:09;;;;;;;1999.90;999.90;;;-1.60;99.90;;;;;;4897201;29;20703;-78
2021/01/16 06:24:38;;;;;;;1999.90;999.90;;;-1.70;99.90;;;;;;4896792;29;20687;-77
2021/01/16 06:27:06;;;;;;;1999.90;999.90;;;-1.80;99.90;;;;;;4896423;29;20708;-77
2021/01/16 06:29:34;;;;;;;1999.90;999.90;;;-1.70;99.90;;;;;;4894248;29;20254;-76
2021/01/16 06:32:07;;;;;;;1999.90;999.90;;;-1.70;99.90;;;;;;4882012;29;20614;-77
2021/01/16 06:34:36;;;;;;;1999.90;999.90;;;-1.70;99.90;;;;;;4859769;29;20295;-78
2021/01/16 06:37:09;;;;;;;1999.90;999.90;;;-1.80;99.90;;;;;;4863694;29;20240;-80
2021/01/16 06:39:38;;;;;;;1999.90;999.90;;;-1.80;99.90;;;;;;4863854;29;20662;-79
2021/01/16 06:42:10;;;;;;;1999.90;999.90;;;-1.90;99.90;;;;;;4864111;29;20209;-78
2021/01/16 06:44:38;;;;;;;1999.90;999.90;;;-1.80;99.90;;;;;;4859970;29;20213;-77
2021/01/16 06:47:05;;;;;;;1999.90;999.90;;;-1.70;99.90;;;;;;4859518;29;20228;-78
2021/01/16 06:49:35;;;;;;;1999.90;999.90;;;-1.90;99.90;;;;;;4859963;29;20240;-79
2021/01/16 06:52:05;;;;;;;1999.90;999.90;;;-2.00;99.90;;;;;;4862544;29;20213;-78
2021/01/16 06:54:33;;;;;;;1999.90;999.90;;;-1.90;99.90;;;;;;4861137;29;20205;-78
2021/01/16 06:57:03;;;;;;;1999.90;999.90;;;-1.80;99.90;;;;;;4875307;29;20254;-77
2021/01/16 06:59:32;;;;;;;1999.90;999.90;;;-1.70;99.90;;;;;;4881616;29;20201;-79
2021/01/16 07:01:59;;;;;;;1999.90;999.90;;;-1.70;99.90;;;;;;4880648;29;20666;-78
2021/01/16 07:04:29;;;;;;;1999.90;999.90;;;-1.60;99.90;;;;;;4885405;29;20216;-80
2021/01/16 07:06:56;;;;;;;1999.90;999.90;;;-1.70;99.90;;;;;;4870906;29;20627;-76
2021/01/16 07:09:24;;;;;;;1999.90;999.90;;;-1.80;99.90;;;;;;4874616;29;20308;-77
2021/01/16 07:11:53;;;;;;;1999.90;999.90;;;-1.80;99.90;;;;;;4879725;29;20204;-76
2021/01/16 07:14:21;;;;;;;1999.90;999.90;;;-1.80;99.90;;;;;;4881112;29;20276;-76
2021/01/16 07:16:50;;;;;;;1999.90;999.90;;;-1.80;99.90;;;;;;4880840;29;20729;-77
2021/01/16 07:19:20;;;;;;;1999.90;999.90;;;-1.90;99.90;;;;;;4880945;29;20208;-76
2021/01/16 07:21:48;;;;;;;1999.90;999.90;;;-2.00;99.90;;;;;;4880736;29;20215;-77
2021/01/16 07:24:17;;;;;;;1999.90;999.90;;;-2.00;99.90;;;;;;4880938;29;20208;-77
2021/01/16 07:26:46;;;;;;;1999.90;999.90;;;-2.00;99.90;;;;;;4884210;29;20228;-77
2021/01/16 07:29:14;;;;;;;1999.90;999.90;;;-1.90;99.90;;;;;;4880689;29;20260;-76
2021/01/16 07:31:44;;;;;;;1999.90;999.90;;;-2.00;99.90;;;;;;4880281;29;20200;-79
2021/01/16 07:34:12;;;;;;;1999.90;999.90;;;-1.90;99.90;;;;;;4871371;29;20201;-79
2021/01/16 07:36:40;;;;;;;1999.90;999.90;;;-1.90;99.90;;;;;;4862585;29;20228;-76
2021/01/16 07:39:09;;;;;;;1999.90;999.90;;;-1.90;99.90;;;;;;4863024;29;20235;-77
2021/01/16 07:41:39;;;;;;;1999.90;999.90;;;-2.00;99.90;;;;;;4862565;29;20276;-77
2021/01/16 07:44:08;;;;;;;1999.90;999.90;;;-2.10;99.90;;;;;;4863049;29;20256;-79
2021/01/16 07:46:36;;;;;;;1999.90;999.90;;;-2.10;99.90;;;;;;4863759;29;20296;-78
2021/01/16 07:49:06;;;;;;;1999.90;999.90;;;-2.00;99.90;;;;;;4863657;29;20224;-78
2021/01/16 07:51:35;;;;;;;1999.90;999.90;;;-2.00;99.90;;;;;;4864041;29;20269;-78
2021/01/16 07:54:04;;;;;;;1999.90;999.90;;;-2.00;99.90;;;;;;4863509;29;20579;-77
2021/01/16 07:56:43;;;;;;;1999.90;999.90;;;-2.00;99.90;;;;;;4858805;29;20687;-77
2021/01/16 07:59:16;;;;;;;1999.90;999.90;;;-1.90;99.90;;;;;;4860311;29;20209;-77
2021/01/16 08:02:16;;;;;;;1999.90;999.90;;;-1.80;99.90;;;;;;4862298;29;20213;-77
2021/01/16 08:04:57;;;;;;;1999.90;999.90;;;-1.60;99.90;;;;;;4871288;29;20204;-79
2021/01/16 08:07:38;;;;;;;1999.90;999.90;;;-1.60;99.90;;;;;;4873123;29;20225;-77
2021/01/16 08:10:11;;;;;;;1999.90;999.90;;;-1.60;99.90;;;;;;4870618;29;20215;-77
2021/01/16 08:12:45;;;;;;;1999.90;999.90;;;-1.50;99.90;;;;;;4873619;29;20205;-78
2021/01/16 08:15:17;;;;;;;1999.90;999.90;;;-1.40;99.90;;;;;;4871225;29;20670;-77
2021/01/16 08:17:46;;;;;;;1999.90;999.90;;;-1.50;99.90;;;;;;4870499;29;20209;-77
2021/01/16 08:20:19;;;;;;;1999.90;999.90;;;-1.50;99.90;;;;;;4870561;29;20204;-78
2021/01/16 08:22:51;;;;;;;1999.90;999.90;;;-1.50;99.90;;;;;;4871040;29;20205;-77
2021/01/16 08:25:23;;;;;;;1999.90;999.90;;;-1.50;99.90;;;;;;4872408;29;20208;-78
2021/01/16 08:27:52;;;;;;;1999.90;999.90;;;-1.50;99.90;;;;;;4871927;29;20389;-79
2021/01/16 08:30:21;;;;;;;1999.90;999.90;;;-1.40;99.90;;;;;;4876859;29;20701;-77
2021/01/16 08:32:55;;;;;;;1999.90;999.90;;;-1.50;99.90;;;;;;4876093;29;20208;-78
2021/01/16 08:35:24;;;;;;;1999.90;999.90;;;-1.40;99.90;;;;;;4872657;29;20318;-77
2021/01/16 08:37:51;;;;;;;1999.90;999.90;;;-1.50;99.90;;;;;;4872684;29;20204;-78
2021/01/16 08:40:33;;;;;;;1999.90;999.90;;;-1.40;99.90;;;;;;4873878;29;20196;-77
2021/01/16 08:43:01;;;;;;;1999.90;999.90;;;-1.40;99.90;;;;;;4874562;29;20200;-77
2021/01/16 08:45:29;;;;;;;1999.90;999.90;;;-1.60;99.90;;;;;;4873428;29;20663;-79
2021/01/16 08:47:59;;;;;;;1999.90;999.90;;;-1.70;99.90;;;;;;4875287;29;20209;-78
2021/01/16 08:50:30;;;;;;;1999.90;999.90;;;-1.70;99.90;;;;;;4877303;29;20223;-78
2021/01/16 08:52:57;;;;;;;1999.90;999.90;;;-1.70;99.90;;;;;;4891163;29;20184;-75
2021/01/16 08:55:28;;;;;;;1999.90;999.90;;;-1.70;99.90;;;;;;4892410;29;20197;-75
2021/01/16 08:58:08;;;;;;;1999.90;999.90;;;-1.60;99.90;;;;;;4875234;29;20211;-78
2021/01/16 09:00:36;;;;;;;1999.90;999.90;;;-1.60;99.90;;;;;;4872867;29;20200;-78
2021/01/16 09:03:13;;;;;;;1999.90;999.90;;;-1.50;99.90;;;;;;4877973;29;20210;-78
2021/01/16 09:05:41;;;;;;;1999.90;999.90;;;-1.40;99.90;;;;;;4872867;29;20224;-78
2021/01/16 09:08:22;;;;;;;1999.90;999.90;;;-1.40;99.90;;;;;;4875504;29;20265;-76
2021/01/16 09:10:49;;;;;;;1999.90;999.90;;;-1.60;99.90;;;;;;4882899;29;20215;-78
2021/01/16 09:13:25;;;;;;;1999.90;999.90;;;-1.60;99.90;;;;;;4889665;29;20208;-80
2021/01/16 09:15:52;;;;;;;1999.90;999.90;;;-1.50;99.90;;;;;;4887435;29;20235;-78
2021/01/16 09:18:26;;;;;;;1999.90;999.90;;;-1.40;99.90;;;;;;4890484;29;20212;-79
2021/01/16 09:20:58;;;;;;;1999.90;999.90;;;-1.50;99.90;;;;;;4877983;29;20298;-77
2021/01/16 09:23:28;;;;;;;1999.90;999.90;;;-1.40;99.90;;;;;;4885084;29;20211;-78
2021/01/16 09:25:57;;;;;;;1999.90;999.90;;;-1.60;99.90;;;;;;4880503;29;20299;-79
2021/01/16 09:28:47;;;;;;;1999.90;999.90;;;-1.50;99.90;;;;;;4879798;29;20200;-78
2021/01/16 09:31:29;;;;;;;1999.90;999.90;;;-1.40;99.90;;;;;;4880945;29;20271;-76
2021/01/16 09:33:58;;;;;;;1999.90;999.90;;;-1.40;99.90;;;;;;4888356;29;20212;-77
2021/01/16 09:36:43;;;;;;;1999.90;999.90;;;-1.40;99.90;;;;;;4891694;29;20235;-77
2021/01/16 09:39:24;;;;;;;1999.90;999.90;;;-1.30;99.90;;;;;;4879006;29;20203;-78
2021/01/16 09:41:53;;;;;;;1999.90;999.90;;;-1.20;99.90;;;;;;4881917;29;20208;-78
2021/01/16 09:44:57;;;;;;;1999.90;999.90;;;-1.00;99.90;;;;;;4891182;29;20215;-77
2021/01/16 09:47:52;;;;;;;1999.90;999.90;;;-0.90;99.90;;;;;;4873591;29;20753;-78
2021/01/16 09:50:21;;;;;;;1999.90;999.90;;;-0.90;99.90;;;;;;4883522;29;20259;-76
2021/01/16 09:52:51;;;;;;;1999.90;999.90;;;-0.90;99.90;;;;;;4883492;29;20673;-78
2021/01/16 09:55:32;;;;;;;1999.90;999.90;;;-0.80;99.90;;;;;;4884770;29;20243;-79
2021/01/16 09:58:01;;;;;;;1999.90;999.90;;;-0.80;99.90;;;;;;4891289;29;20704;-79
2021/01/16 10:00:32;;;;;;;1999.90;999.90;;;-0.90;99.90;;;;;;4891820;29;20264;-77
2021/01/16 10:03:05;;;;;;;1999.90;999.90;;;-0.80;99.90;;;;;;4886152;29;20212;-80
2021/01/16 10:05:37;;;;;;;1999.90;999.90;;;-0.80;99.90;;;;;;4884932;29;20251;-81
2021/01/16 10:08:06;;;;;;;1999.90;999.90;;;-0.60;99.90;;;;;;4890539;29;20684;-77
2021/01/16 10:10:44;;;;;;;1999.90;999.90;;;-0.50;99.90;;;;;;4897100;29;20282;-78
2021/01/16 10:13:12;;;;;;;1999.90;999.90;;;-0.40;99.90;;;;;;4893333;29;20211;-78
2021/01/16 10:15:48;;;;;;;1999.90;999.90;;;-0.60;99.90;;;;;;4891151;29;20649;-78
2021/01/16 10:18:19;;;;;;;1999.90;999.90;;;-0.70;99.90;;;;;;4880958;29;20243;-78
2021/01/16 10:21:02;;;;;;;1999.90;999.90;;;-0.70;99.90;;;;;;4895999;29;20669;-78
2021/01/16 10:23:31;;;;;;;1999.90;999.90;;;-0.70;99.90;;;;;;4894638;29;20207;-77
2021/01/16 10:26:04;;;;;;;1999.90;999.90;;;-0.50;99.90;;;;;;4897572;29;20731;-79
2021/01/16 10:28:33;;;;;;;1999.90;999.90;;;-0.40;99.90;;;;;;4895617;29;20211;-79
2021/01/16 10:31:02;;;;;;;1999.90;999.90;;;-0.30;99.90;;;;;;4893934;29;20318;-77
2021/01/16 10:33:37;;;;;;;1999.90;999.90;;;-0.30;99.90;;;;;;4877095;29;20212;-77
2021/01/16 10:36:13;;;;;;;1999.90;999.90;;;-0.40;99.90;;;;;;4897548;29;20238;-77
2021/01/16 10:38:50;;;;;;;1999.90;999.90;;;-0.30;99.90;;;;;;4894644;29;20214;-79
2021/01/16 10:41:19;;;;;;;1999.90;999.90;;;-0.30;99.90;;;;;;4893317;29;20211;-76
2021/01/16 10:43:47;;;;;;;1999.90;999.90;;;-0.50;99.90;;;;;;4883403;29;20662;-81
2021/01/16 10:46:30;;;;;;;1999.90;999.90;;;-0.70;99.90;;;;;;4896278;29;20235;-77
2021/01/16 10:49:17;;;;;;;1999.90;999.90;;;-0.60;99.90;;;;;;4890639;29;20322;-78
2021/01/16 10:51:49;;;;;;;1999.90;999.90;;;-0.70;99.90;;;;;;4884385;29;20681;-78
2021/01/16 10:54:18;;;;;;;1999.90;999.90;;;-0.70;99.90;;;;;;4896302;29;20211;-77
2021/01/16 10:56:57;;;;;;;1999.90;999.90;;;-0.40;99.90;;;;;;4896213;29;20256;-78
2021/01/16 10:59:25;;;;;;;1999.90;999.90;;;-0.40;99.90;;;;;;4902708;29;20211;-78
2021/01/16 11:01:52;;;;;;;1999.90;999.90;;;-0.30;99.90;;;;;;4900559;29;20210;-77
2021/01/16 11:04:23;;;;;;;1999.90;999.90;;;0.00;99.90;;;;;;4898574;29;20602;-77
2021/01/16 11:06:53;;;;;;;1999.90;999.90;;;-0.20;99.90;;;;;;4894602;29;20251;-77
2021/01/16 11:10:05;;;;;;;1999.90;999.90;;;-0.20;99.90;;;;;;4901670;29;20257;-77
2021/01/16 11:12:33;;;;;;;1999.90;999.90;;;-0.30;99.90;;;;;;4882813;29;20211;-79
2021/01/16 11:15:00;;;;;;;1999.90;999.90;;;-0.30;99.90;;;;;;4899079;29;20212;-77
2021/01/16 11:17:47;;;;;;;1999.90;999.90;;;-0.40;99.90;;;;;;4900239;29;21107;-78
2021/01/16 11:20:21;;;;;;;1999.90;999.90;;;-0.30;99.90;;;;;;4881067;29;20241;-77
2021/01/16 11:23:18;;;;;;;1999.90;999.90;;;-0.30;99.90;;;;;;4878908;29;20212;-75
2021/01/16 11:25:47;;;;;;;1999.90;999.90;;;-0.30;99.90;;;;;;4889724;29;20231;-76
2021/01/16 11:28:19;;;;;;;1999.90;999.90;;;-0.50;99.90;;;;;;4888068;29;20265;-77
2021/01/16 11:30:48;;;;;;;1999.90;999.90;;;-0.70;99.90;;;;;;4881465;29;20228;-77
2021/01/16 11:33:23;;;;;;;1999.90;999.90;;;-0.70;99.90;;;;;;4884097;29;20208;-77
2021/01/16 11:35:56;;;;;;;1999.90;999.90;;;-0.70;99.90;;;;;;4884433;29;20295;-78
2021/01/16 11:38:40;;;;;;;1999.90;999.90;;;-0.80;99.90;;;;;;4898416;29;20271;-76
2021/01/16 11:41:07;;;;;;;1999.90;999.90;;;-0.60;99.90;;;;;;4875282;29;20244;-78
2021/01/16 11:43:35;;;;;;;1999.90;999.90;;;-0.70;99.90;;;;;;4884143;29;20220;-78
2021/01/16 11:46:07;;;;;;;1999.90;999.90;;;-0.70;99.90;;;;;;4882226;29;20272;-78
2021/01/16 11:48:35;;;;;;;1999.90;999.90;;;-0.80;99.90;;;;;;4883692;29;20218;-77
2021/01/16 11:51:16;;;;;;;1999.90;999.90;;;-0.60;99.90;;;;;;4883470;29;20230;-77
2021/01/16 11:53:48;;;;;;;1999.90;999.90;;;-0.70;99.90;;;;;;4873927;29;20224;-75
2021/01/16 11:56:16;;;;;;;1999.90;999.90;;;-0.60;99.90;;;;;;4875649;29;20228;-77
2021/01/16 11:58:47;;;;;;;1999.90;999.90;;;-0.50;99.90;;;;;;4874160;29;20236;-79
2021/01/16 12:01:15;;;;;;;1999.90;999.90;;;-0.60;99.90;;;;;;4879589;29;20196;-79
2021/01/16 12:03:42;;;;;;;1999.90;999.90;;;-0.60;99.90;;;;;;4879502;29;20208;-78
2021/01/16 12:06:14;;;;;;;1999.90;999.90;;;-0.40;99.90;;;;;;4877436;29;20224;-78
2021/01/16 12:08:43;;;;;;;1999.90;999.90;;;-0.50;99.90;;;;;;4875356;29;20289;-77
2021/01/16 12:11:10;;;;;;;1999.90;999.90;;;-0.60;99.90;;;;;;4874554;29;20224;-77
2021/01/16 12:13:40;;;;;;;1999.90;999.90;;;-0.70;99.90;;;;;;4872223;29;20200;-76
2021/01/16 12:16:11;;;;;;;1999.90;999.90;;;-0.70;99.90;;;;;;4876046;29;20232;-76
2021/01/16 12:18:39;;;;;;;1999.90;999.90;;;-0.80;99.90;;;;;;4880292;29;20741;-77
2021/01/16 12:21:09;;;;;;;1999.90;999.90;;;-0.70;99.90;;;;;;4892307;29;20231;-77
2021/01/16 12:23:42;;;;;;;1999.90;999.90;;;-0.60;99.90;;;;;;4884196;29;20272;-76
2021/01/16 12:26:12;;;;;;;1999.90;999.90;;;-0.80;99.90;;;;;;4874029;29;20236;-78
2021/01/16 12:28:44;;;;;;;1999.90;999.90;;;-0.70;99.90;;;;;;4882425;29;20200;-78
2021/01/16 12:31:22;;;;;;;1999.90;999.90;;;-0.70;99.90;;;;;;4913851;23;20231;-77
2021/01/16 12:33:50;;;;;;;1999.90;999.90;;;-0.60;99.90;;;;;;4902559;29;20199;-77
2021/01/16 12:36:18;;;;;;;1999.90;999.90;;;-0.80;99.90;;;;;;4899484;29;20215;-78
2021/01/16 12:38:50;;;;;;;1999.90;999.90;;;-0.70;99.90;;;;;;4899698;29;20712;-77
2021/01/16 12:41:21;;;;;;;1999.90;999.90;;;-0.80;99.90;;;;;;4902349;29;20227;-78
2021/01/16 12:43:49;;;;;;;1999.90;999.90;;;-0.70;99.90;;;;;;4899642;29;20204;-78
2021/01/16 12:46:17;;;;;;;1999.90;999.90;;;-0.60;99.90;;;;;;4899958;29;20215;-77
2021/01/16 12:48:44;;;;;;;1999.90;999.90;;;-0.60;99.90;;;;;;4899532;29;20210;-78
2021/01/16 12:51:14;;;;;;;1999.90;999.90;;;-0.70;99.90;;;;;;4898720;29;20227;-77
2021/01/16 12:53:42;;;;;;;1999.90;999.90;;;-0.60;99.90;;;;;;4899185;29;20675;-78
2021/01/16 12:56:17;;;;;;;1999.90;999.90;;;-0.60;99.90;;;;;;4899702;29;20224;-79
2021/01/16 12:58:46;;;;;;;1999.90;999.90;;;-0.70;99.90;;;;;;4897773;29;20195;-78
2021/01/16 13:01:14;;;;;;;1999.90;999.90;;;-0.50;99.90;;;;;;4899998;29;20596;-78
2021/01/16 13:03:42;;;;;;;1999.90;999.90;;;-0.50;99.90;;;;;;4898919;29;20704;-79
2021/01/16 13:06:10;;;;;;;1999.90;999.90;;;-0.40;99.90;;;;;;4899645;29;20219;-78
2021/01/16 13:08:37;;;;;;;1999.90;999.90;;;-0.40;99.90;;;;;;4898459;29;20203;-78
2021/01/16 13:11:05;;;;;;;1999.90;999.90;;;-0.30;99.90;;;;;;4899256;29;20716;-78
2021/01/16 13:13:33;;;;;;;1999.90;999.90;;;-0.30;99.90;;;;;;4899220;29;20691;-78
2021/01/16 13:16:01;;;;;;;1999.90;999.90;;;-0.20;99.90;;;;;;4898667;29;20673;-78
2021/01/16 13:18:33;;;;;;;1999.90;999.90;;;-0.20;99.90;;;;;;4897845;29;20215;-77
2021/01/16 13:21:01;;;;;;;1999.90;999.90;;;-0.20;99.90;;;;;;4897964;29;20223;-78
2021/01/16 13:23:36;;;;;;;1999.90;999.90;;;-0.10;99.90;;;;;;4899123;29;20234;-78
2021/01/16 13:26:03;;;;;;;1999.90;999.90;;;-0.20;99.90;;;;;;4898890;29;20210;-78
2021/01/16 13:28:31;;;;;;;1999.90;999.90;;;-0.20;99.90;;;;;;4899028;29;20223;-76
2021/01/16 13:31:01;;;;;;;1999.90;999.90;;;-0.30;99.90;;;;;;4898873;29;20235;-77
2021/01/16 13:33:29;;;;;;;1999.90;999.90;;;-0.30;99.90;;;;;;4899485;29;20624;-79
2021/01/16 13:35:56;;;;;;;1999.90;999.90;;;-0.40;99.90;;;;;;4900506;29;20739;-80
2021/01/16 13:38:32;;;;;;;1999.90;999.90;;;-0.60;99.90;;;;;;4899085;29;20214;-80
2021/01/16 13:41:00;;;;;;;1999.90;999.90;;;-0.60;99.90;;;;;;4898864;29;20226;-79
2021/01/16 13:43:29;;;;;;;1999.90;999.90;;;-0.40;99.90;;;;;;4901331;29;20624;-80
2021/01/16 13:45:57;;;;;;;1999.90;999.90;;;-0.40;99.90;;;;;;4902025;29;20212;-79
2021/01/16 13:48:37;;;;;;;1999.90;999.90;;;-0.40;99.90;;;;;;4901816;29;20704;-80
2021/01/16 13:51:22;;;;;;;1999.90;999.90;;;-0.40;99.90;;;;;;4903973;29;20323;-77
2021/01/16 13:53:53;;;;;;;1999.90;999.90;;;-0.40;99.90;;;;;;4904996;29;20199;-78
2021/01/16 13:56:25;;;;;;;1999.90;999.90;;;-0.50;99.90;;;;;;4905102;29;20379;-79
2021/01/16 13:58:52;;;;;;;1999.90;999.90;;;-0.50;99.90;;;;;;4905919;29;20203;-78
2021/01/16 14:01:36;;;;;;;1999.90;999.90;;;-0.60;99.90;;;;;;4908935;29;20227;-78
2021/01/16 14:04:07;;;;;;;1999.90;999.90;;;-0.70;99.90;;;;;;4912509;29;20212;-78
2021/01/16 14:06:44;;;;;;;1999.90;999.90;;;-0.70;99.90;;;;;;4910105;29;20239;-78
2021/01/16 14:09:11;;;;;;;1999.90;999.90;;;-0.80;99.90;;;;;;4905189;29;20207;-78
2021/01/16 14:11:42;;;;;;;1999.90;999.90;;;-0.80;99.90;;;;;;4906124;29;20267;-78
2021/01/16 14:14:20;;;;;;;1999.90;999.90;;;-0.60;99.90;;;;;;4899304;29;20712;-78
2021/01/16 14:16:47;;;;;;;1999.90;999.90;;;-0.60;99.90;;;;;;4898647;29;20629;-79
2021/01/16 14:19:16;;;;;;;1999.90;999.90;;;-0.70;99.90;;;;;;4898550;29;20207;-78
2021/01/16 14:21:52;;;;;;;1999.90;999.90;;;-0.70;99.90;;;;;;4898058;29;20223;-78
2021/01/16 14:24:19;;;;;;;1999.90;999.90;;;-0.60;99.90;;;;;;4898777;29;20206;-78
2021/01/16 14:26:55;;;;;;;1999.90;999.90;;;-0.60;99.90;;;;;;4898771;29;20604;-79
2021/01/16 14:29:23;;;;;;;1999.90;999.90;;;-0.70;99.90;;;;;;4898235;29;20230;-78
2021/01/16 14:31:50;;;;;;;1999.90;999.90;;;-0.70;99.90;;;;;;4898546;29;20287;-78
2021/01/16 14:34:18;;;;;;;1999.90;999.90;;;-0.70;99.90;;;;;;4898716;29;20263;-79
2021/01/16 14:36:54;;;;;;;1999.90;999.90;;;-0.70;99.90;;;;;;4898467;29;20207;-78
2021/01/16 14:39:21;;;;;;;1999.90;999.90;;;-0.80;99.90;;;;;;4898609;29;20756;-79
2021/01/16 14:41:50;;;;;;;1999.90;999.90;;;-0.80;99.90;;;;;;4900007;29;20252;-78
2021/01/16 14:44:23;;;;;;;1999.90;999.90;;;-0.80;99.90;;;;;;4898098;29;20301;-78
2021/01/16 14:46:54;;;;;;;1999.90;999.90;;;-0.80;99.90;;;;;;4898080;29;20215;-78
2021/01/16 14:49:24;;;;;;;1999.90;999.90;;;-0.80;99.90;;;;;;4898809;29;20589;-78
2021/01/16 14:51:53;;;;;;;1999.90;999.90;;;-0.90;99.90;;;;;;4897911;29;20223;-78
2021/01/16 14:54:21;;;;;;;1999.90;999.90;;;-0.80;99.90;;;;;;4897889;29;20213;-78
2021/01/16 14:56:50;;;;;;;1999.90;999.90;;;-0.80;99.90;;;;;;4898043;29;20215;-78
2021/01/16 14:59:18;;;;;;;1999.90;999.90;;;-0.70;99.90;;;;;;4897302;29;20223;-78
2021/01/16 15:01:46;;;;;;;1999.90;999.90;;;-0.70;99.90;;;;;;4898304;29;20306;-78
2021/01/16 15:04:15;;;;;;;1999.90;999.90;;;-0.60;99.90;;;;;;4897384;29;20692;-78
2021/01/16 15:06:47;;;;;;;1999.90;999.90;;;-0.70;99.90;;;;;;4897788;29;20215;-78
2021/01/16 15:09:15;;;;;;;1999.90;999.90;;;-0.70;99.90;;;;;;4897329;29;20259;-78
2021/01/16 15:11:56;;;;;;;1999.90;999.90;;;-0.80;99.90;;;;;;4897730;29;20290;-78
2021/01/16 15:14:27;;;;;;;1999.90;999.90;;;-0.90;99.90;;;;;;4897714;29;20203;-78
2021/01/16 15:16:56;;;;;;;1999.90;999.90;;;-0.80;99.90;;;;;;4897452;29;20215;-78
2021/01/16 15:19:24;;;;;;;1999.90;999.90;;;-0.70;99.90;;;;;;4897635;29;20203;-78
2021/01/16 15:21:52;;;;;;;1999.90;999.90;;;-0.70;99.90;;;;;;4882871;29;20276;-78
2021/01/16 15:24:22;;;;;;;1999.90;999.90;;;-0.70;99.90;;;;;;4877987;29;20666;-77
2021/01/16 15:26:50;;;;;;;1999.90;999.90;;;-0.70;99.90;;;;;;4876354;29;20264;-77
2021/01/16 15:29:17;;;;;;;1999.90;999.90;;;-0.60;99.90;;;;;;4875746;29;20237;-77
2021/01/16 15:31:45;;;;;;;1999.90;999.90;;;-0.70;99.90;;;;;;4878249;29;20315;-78
2021/01/16 15:34:17;;;;;;;1999.90;999.90;;;-0.60;99.90;;;;;;4880141;29;20538;-77
2021/01/16 15:36:45;;;;;;;1999.90;999.90;;;-0.70;99.90;;;;;;4880392;29;20256;-77
2021/01/16 15:39:13;;;;;;;1999.90;999.90;;;-0.90;99.90;;;;;;4880878;29;20208;-77
2021/01/16 15:41:44;;;;;;;1999.90;999.90;;;-0.90;99.90;;;;;;4880849;29;20228;-77
2021/01/16 15:44:12;;;;;;;1999.90;999.90;;;-1.00;99.90;;;;;;4881723;29;20220;-77
2021/01/16 15:46:38;;;;;;;1999.90;999.90;;;-1.10;99.90;;;;;;4881685;29;20256;-78
2021/01/16 15:49:07;;;;;;;1999.90;999.90;;;-1.00;99.90;;;;;;4881299;29;20615;-77
2021/01/16 15:51:38;;;;;;;1999.90;999.90;;;-1.00;99.90;;;;;;4883755;29;20650;-77
2021/01/16 15:54:09;;;;;;;1999.90;999.90;;;-1.00;99.90;;;;;;4897069;29;20211;-78
2021/01/16 15:56:38;;;;;;;1999.90;999.90;;;-1.20;99.90;;;;;;4886019;29;20638;-78
2021/01/16 15:59:06;;;;;;;1999.90;999.90;;;-1.10;99.90;;;;;;4882191;29;20200;-79
2021/01/16 16:01:36;;;;;;;1999.90;999.90;;;-1.10;99.90;;;;;;4882829;29;20216;-79
2021/01/16 16:04:10;;;;;;;1999.90;999.90;;;-1.20;99.90;;;;;;4883476;29;20666;-79
2021/01/16 16:06:37;;;;;;;1999.90;999.90;;;-1.20;99.90;;;;;;4892977;29;20267;-79
2021/01/16 16:09:05;;;;;;;1999.90;999.90;;;-1.10;99.90;;;;;;4899849;29;20218;-77
2021/01/16 16:11:33;;;;;;;1999.90;999.90;;;-1.10;99.90;;;;;;4899810;29;20235;-78
2021/01/16 16:14:01;;;;;;;1999.90;999.90;;;-1.10;99.90;;;;;;4898608;29;20271;-75
2021/01/16 16:16:28;;;;;;;1999.90;999.90;;;-1.10;99.90;;;;;;4898627;29;20208;-76
2021/01/16 16:18:56;;;;;;;1999.90;999.90;;;-1.10;99.90;;;;;;4898332;29;20227;-76
2021/01/16 16:21:23;;;;;;;1999.90;999.90;;;-1.10;99.90;;;;;;4897843;29;20211;-75
2021/01/16 16:23:50;;;;;;;1999.90;999.90;;;-1.20;99.90;;;;;;4864491;29;20220;-80
2021/01/16 16:26:17;;;;;;;1999.90;999.90;;;-1.30;99.90;;;;;;4887368;29;20330;-79
2021/01/16 16:28:44;;;;;;;1999.90;999.90;;;-1.30;99.90;;;;;;4899998;29;20203;-79
2021/01/16 16:31:12;;;;;;;1999.90;999.90;;;-1.30;99.90;;;;;;4899190;29;20220;-78
2021/01/16 16:33:41;;;;;;;1999.90;999.90;;;-1.30;99.90;;;;;;4899160;29;20664;-78
2021/01/16 16:36:09;;;;;;;1999.90;999.90;;;-1.30;99.90;;;;;;4901135;29;20207;-78
2021/01/16 16:38:38;;;;;;;1999.90;999.90;;;-1.30;99.90;;;;;;4901194;29;20236;-79
2021/01/16 16:41:05;;;;;;;1999.90;999.90;;;-1.30;99.90;;;;;;4900446;29;20223;-77
2021/01/16 16:43:33;;;;;;;1999.90;999.90;;;-1.30;99.90;;;;;;4898816;29;20204;-78
2021/01/16 16:46:01;;;;;;;1999.90;999.90;;;-1.40;99.90;;;;;;4900672;29;20207;-78
2021/01/16 16:48:29;;;;;;;1999.90;999.90;;;-1.40;99.90;;;;;;4899918;29;20571;-78
2021/01/16 16:50:56;;;;;;;1999.90;999.90;;;-1.30;99.90;;;;;;4900160;29;20286;-78
2021/01/16 16:53:23;;;;;;;1999.90;999.90;;;-1.40;99.90;;;;;;4900347;29;20207;-77
2021/01/16 16:55:50;;;;;;;1999.90;999.90;;;-1.30;99.90;;;;;;4900002;29;20579;-78
2021/01/16 16:58:19;;;;;;;1999.90;999.90;;;-1.30;99.90;;;;;;4899148;29;20195;-77
2021/01/16 17:00:46;;;;;;;1999.90;999.90;;;-1.30;99.90;;;;;;4899491;29;20764;-78
2021/01/16 17:03:13;;;;;;;1999.90;999.90;;;-1.30;99.90;;;;;;4899463;29;20688;-77
2021/01/16 17:05:41;;;;;;;1999.90;999.90;;;-1.50;99.90;;;;;;4899689;29;20658;-78
2021/01/16 17:08:08;;;;;;;1999.90;999.90;;;-1.50;99.90;;;;;;4885543;29;20295;-78
2021/01/16 17:10:38;;;;;;;1999.90;999.90;;;-1.30;99.90;;;;;;4865428;29;20224;-79
2021/01/16 17:13:06;;;;;;;1999.90;999.90;;;-1.40;99.90;;;;;;4881893;29;20898;-79
2021/01/16 17:15:34;;;;;;;1999.90;999.90;;;-1.40;99.90;;;;;;4882190;29;20223;-79
2021/01/16 17:18:03;;;;;;;1999.90;999.90;;;-1.40;99.90;;;;;;4881888;29;20218;-79
2021/01/16 17:20:31;;;;;;;1999.90;999.90;;;-1.40;99.90;;;;;;4880659;29;20192;-79
2021/01/16 17:22:59;;;;;;;1999.90;999.90;;;-1.30;99.90;;;;;;4880218;29;20359;-78
2021/01/16 17:25:28;;;;;;;1999.90;999.90;;;-1.40;99.90;;;;;;4880922;29;20291;-79
2021/01/16 17:27:55;;;;;;;1999.90;999.90;;;-1.30;99.90;;;;;;4879488;29;20224;-79
2021/01/16 17:30:23;;;;;;;1999.90;999.90;;;-1.30;99.90;;;;;;4881458;29;20646;-80
2021/01/16 17:32:52;;;;;;;1999.90;999.90;;;-1.40;99.90;;;;;;4884262;29;20219;-78
2021/01/16 17:35:20;;;;;;;1999.90;999.90;;;-1.40;99.90;;;;;;4882066;29;20615;-80
2021/01/16 17:37:46;;;;;;;1999.90;999.90;;;-1.40;99.90;;;;;;4879909;29;20677;-79
2021/01/16 17:40:15;;;;;;;1999.90;999.90;;;-1.40;99.90;;;;;;4878143;29;20200;-78
2021/01/16 17:42:47;;;;;;;1999.90;999.90;;;-1.40;99.90;;;;;;4873713;29;20249;-80
2021/01/16 17:45:14;;;;;;;1999.90;999.90;;;-1.50;99.90;;;;;;4881116;29;20216;-80
2021/01/16 17:47:41;;;;;;;1999.90;999.90;;;-1.50;99.90;;;;;;4879354;29;20690;-80
2021/01/16 17:50:09;;;;;;;1999.90;999.90;;;-1.50;99.90;;;;;;4881642;29;20223;-80
2021/01/16 17:52:37;;;;;;;1999.90;999.90;;;-1.50;99.90;;;;;;4883878;29;20232;-79
2021/01/16 17:55:06;;;;;;;1999.90;999.90;;;-1.50;99.90;;;;;;4881943;29;20215;-79
2021/01/16 17:57:34;;;;;;;1999.90;999.90;;;-1.50;99.90;;;;;;4879915;29;20215;-78
2021/01/16 18:00:01;;;;;;;1999.90;999.90;;;-1.40;99.90;;;;;;4874904;29;20208;-79
2021/01/16 18:02:28;;;;;;;1999.90;999.90;;;-1.40;99.90;;;;;;4882269;29;20228;-79
2021/01/16 18:04:55;;;;;;;1999.90;999.90;;;-1.40;99.90;;;;;;4880832;29;20208;-79
2021/01/16 18:07:22;;;;;;;1999.90;999.90;;;-1.40;99.90;;;;;;4879953;29;20204;-80
2021/01/16 18:09:48;;;;;;;1999.90;999.90;;;-1.40;99.90;;;;;;4880709;29;20271;-79
2021/01/16 18:12:15;;;;;;;1999.90;999.90;;;-1.40;99.90;;;;;;4882861;29;20240;-79
2021/01/16 18:14:43;;;;;;;1999.90;999.90;;;-1.50;99.90;;;;;;4884202;29;20245;-79
2021/01/16 18:17:10;;;;;;;1999.90;999.90;;;-1.40;99.90;;;;;;4884464;29;20234;-80
2021/01/16 18:19:38;;;;;;;1999.90;999.90;;;-1.30;99.90;;;;;;4883324;29;20220;-80
2021/01/16 18:22:05;;;;;;;1999.90;999.90;;;-1.20;99.90;;;;;;4882195;29;20224;-80
2021/01/16 18:24:32;;;;;;;1999.90;999.90;;;-1.20;99.90;;;;;;4886123;29;20629;-80
2021/01/16 18:26:59;;;;;;;1999.90;999.90;;;-1.30;99.90;;;;;;4882858;29;20233;-78
2021/01/16 18:29:26;;;;;;;1999.90;999.90;;;-1.30;99.90;;;;;;4888418;29;20211;-76
2021/01/16 18:31:53;;;;;;;1999.90;999.90;;;-1.30;99.90;;;;;;4896686;29;20231;-79